Terminal Aerodrome Forecast
Issued by NWS Paducah, KY

Home | Current Version | Previous Version | Text Only | Print | Product List | Glossary On
Versions: 1 2 3 4 5 6 7 8 9 10 11 12 13 14 15 16 17 18 19
000
FTUS43 KPAH 261344 AAB
TAFEVV
TAF AMD
KEVV 261344Z 2614/2712 23004KT 4SM BR BKN005
      TEMPO 2614/2616 6SM HZ SCT005
     FM261600 23005KT P6SM SCT035
     FM262300 02004KT P6SM SCT150 BKN250
     FM270800 00000KT 4SM BR SCT150 BKN250=

USA.gov is the U.S. government's official web portal to all federal, state and local government web resources and services.